• Join FlightAware (Why Join?)
  • Login
  • US Flag 
12:32AM EDT


 

Airport Tracker/Info


-or-


 

Live Flight TrackerFlight Track Log ✈ ENY3619 ✈ 03-Jul-2014 ✈ KORD - KABQ

Flight Track Log - Related Links

Times and Time Zones

All times are in EDT time to prevent confusion due to time zone crossing. See the ENY3619 flight status page for this flight to view local times or setup timezone preferences in your user account.

Time Position Orientation Groundspeed Altitude Reporting Facility
EDT Latitude Longitude Course Direction KTS MPH feet Rate Location/Type
03:27PM 41.9667 -87.9667 266° West 173 199 2,600  Level Chicago TRACON
03:28PM 41.9608 -88.0717 266° West 237 273 5,200 2,460 Climbing Chicago Center
03:29PM 41.9547 -88.1714 265° West 264 304 8,100 2,880 Climbing Chicago Center
03:30PM 41.9475 -88.2797 265° West 269 310 11,200 2,400 Climbing Chicago Center
03:31PM 41.9194 -88.3819 250° West 294 338 13,100 1,680 Climbing Chicago Center
03:32PM 41.8825 -88.5114 249° West 348 400 14,700 1,560 Climbing Chicago Center
03:34PM 41.8114 -88.7581 234° Southwest 379 436 18,000 1,800 Climbing Chicago Center
03:35PM 41.7819 -88.9197 256° West 375 432 20,400 1,680 Climbing Chicago Center
03:37PM 41.7456 -89.2006 260° West 387 445 23,300 1,260 Climbing Chicago Center
03:39PM 41.7058 -89.4928 260° West 401 461 25,700 1,140 Climbing Chicago Center
03:40PM 41.6831 -89.6603 260° West 406 467 27,000 1,080 Climbing Chicago Center
03:41PM 41.6467 -89.8089 252° West 420 483 28,000 900 Climbing Chicago Center
03:43PM 41.5550 -90.0972 247° West 425 489 29,800 780 Climbing Chicago Center
03:44PM 41.4978 -90.2728 247° West 429 494 30,600 720 Climbing Chicago Center
03:45PM 41.4503 -90.4197 247° West 432 497 31,300 660 Climbing Chicago Center
03:47PM 41.4022 -90.5661 246° West 433 498 32,000 540 Climbing Chicago Center
03:49PM 41.3047 -90.8611 246° West 436 502 33,100 540 Climbing Chicago Center
03:50PM 41.2461 -91.0367 246° West 435 501 33,700 600 Climbing Chicago Center
03:51PM 41.1969 -91.1800 246° West 433 498 34,400 660 Climbing Chicago Center
03:52PM 41.1483 -91.3222 246° West 429 494 35,100 540 Climbing Chicago Center
03:53PM 41.1008 -91.4644 246° West 427 491 35,600 480 Climbing Chicago Center
03:54PM 41.0519 -91.6078 246° West 426 490 36,100 480 Climbing Chicago Center
03:55PM 40.9978 -91.7644 245° Southwest 427 491 36,700 480 Climbing Chicago Center
03:56PM 40.9492 -91.9064 246° West 427 491 37,200 360 Climbing Chicago Center
03:58PM 40.8222 -92.2689 245° Southwest 425 489 38,000 240 Climbing Kansas City Center
03:59PM 40.7942 -92.3528 246° West 424 488 38,000  Level Chicago Center
04:00PM 40.7447 -92.4900 245° Southwest 424 488 38,000  Level Chicago Center
04:01PM 40.6956 -92.6281 245° Southwest 423 487 38,000  Level Chicago Center
04:02PM 40.6375 -92.7933 245° Southwest 423 487 38,000  Level Chicago Center
04:03PM 40.5883 -92.9311 245° Southwest 423 487 38,000  Level Chicago Center
04:04PM 40.5383 -93.0683 244° Southwest 423 487 38,000  Level Chicago Center
04:06PM 40.4683 -93.2614 245° Southwest 425 489 38,000  Level Kansas City Center
04:07PM 40.4125 -93.4317 247° West 428 493 38,000  Level Kansas City Center
04:08PM 40.3719 -93.5744 250° West 426 490 38,000  Level Kansas City Center
04:09PM 40.3031 -93.8078 249° West 428 493 38,000  Level Chicago Center
04:10PM 40.2592 -93.9528 248° West 430 495 38,000  Level Chicago Center
04:11PM 40.2056 -94.1267 248° West 431 496 38,000  Level Chicago Center
04:13PM 40.1428 -94.3344 248° West 432 497 38,000  Level Kansas City Center
04:14PM 40.0978 -94.4817 248° West 437 503 38,000  Level Kansas City Center
04:15PM 40.0528 -94.6286 248° West 437 503 38,000  Level Kansas City Center
04:16PM 40.0075 -94.7747 248° West 437 503 38,000  Level Kansas City Center
04:17PM 39.9622 -94.9222 248° West 438 504 38,000  Level Kansas City Center
04:18PM 39.8992 -95.0936 244° Southwest 440 506 38,000  Level Kansas City Center
04:19PM 39.8461 -95.2369 244° Southwest 440 506 38,000  Level Kansas City Center
04:20PM 39.7917 -95.3833 244° Southwest 441 507 38,000  Level Kansas City Center
04:21PM 39.7400 -95.5247 245° Southwest 443 510 38,000  Level Kansas City Center
04:22PM 39.6858 -95.6678 244° Southwest 444 511 38,000  Level Kansas City Center
04:24PM 39.5656 -95.9836 243° Southwest 446 513 38,000  Level Kansas City Center
04:26PM 39.4531 -96.2772 241° Southwest 447 514 38,000  Level Kansas City Center
04:27PM 39.3972 -96.4222 244° Southwest 447 514 38,000  Level Kansas City Center
04:28PM 39.3336 -96.5856 243° Southwest 447 514 38,000  Level Kansas City Center
04:29PM 39.2781 -96.7300 244° Southwest 447 514 38,000  Level Kansas City Center
04:30PM 39.2228 -96.8722 243° Southwest 447 514 38,000  Level Kansas City Center
04:31PM 39.1653 -97.0144 242° Southwest 447 514 38,000  Level Kansas City Center
04:33PM 39.1092 -97.1572 243° Southwest 447 514 38,000  Level Kansas City Center
04:34PM 39.0522 -97.3039 243° Southwest 454 522 38,000  Level Kansas City Center
04:35PM 38.9833 -97.4753 243° Southwest 451 519 38,000  Level Kansas City Center
04:36PM 38.9283 -97.6172 244° Southwest 445 512 38,000  Level Kansas City Center
04:37PM 38.8808 -97.7650 248° West 446 513 38,000  Level Kansas City Center
04:38PM 38.8333 -97.9231 249° West 456 525 38,000  Level Kansas City Center
04:39PM 38.7869 -98.0708 248° West 456 525 38,000  Level Kansas City Center
04:40PM 38.7408 -98.2194 248° West 454 522 38,000  Level Kansas City Center
04:41PM 38.6847 -98.3975 248° West 454 522 38,000  Level Kansas City Center
04:43PM 38.5903 -98.6953 248° West 454 522 38,000  Level Kansas City Center
04:44PM 38.5433 -98.8433 248° West 454 522 38,000  Level Kansas City Center
04:45PM 38.4983 -98.9892 249° West 450 518 38,000  Level Kansas City Center
04:46PM 38.4511 -99.1372 248° West 450 518 38,000  Level Kansas City Center
04:49PM 38.2936 -99.6172 249° West 451 519 38,000  Level Kansas City Center
04:52PM 38.1661 -99.9906 242° Southwest 452 520 38,000  Level Albuquerque Center
04:52PM 38.1453 -100.0647 250° West 452 520 38,000  Level Kansas City Center
04:54PM 38.0422 -100.3681 247° West 452 520 38,000  Level Kansas City Center
04:55PM 38.0464 -100.2992 249° West  Level FlightAware Approximate
04:55PM 37.9864 -100.5331 247° West 453 521 38,000  Level Kansas City Center
04:56PM 37.9389 -100.6719 247° West 453 521 38,000  Level Kansas City Center
04:57PM 37.8722 -100.8261 241° Southwest 452 520 38,000  Level Kansas City Center
04:59PM 37.7389 -101.0978 238° Southwest 456 525 38,000  Level Kansas City Center
05:00PM 37.6700 -101.2622 242° Southwest 456 525 38,000  Level Kansas City Center
05:03PM 37.5417 -101.6025 245° Southwest 451 519 38,000  Level Albuquerque Center
05:04PM 37.4897 -101.7403 245° Southwest 452 520 38,000  Level Albuquerque Center
05:05PM 37.4556 -101.8314 245° Southwest 453 521 38,000  Level Kansas City Center
05:06PM 37.3944 -101.9925 245° Southwest 454 522 38,000  Level Kansas City Center
05:08PM 37.2792 -102.2903 244° Southwest 456 525 38,000  Level Kansas City Center
05:09PM 37.1997 -102.4972 244° Southwest 455 524 38,000  Level Albuquerque Center
05:10PM 37.1442 -102.6408 244° Southwest 455 524 38,000  Level Albuquerque Center
05:11PM 37.0875 -102.7828 243° Southwest 456 525 38,000  Level Albuquerque Center
05:13PM 36.9589 -103.0567 240° Southwest 456 525 38,000  Level Albuquerque Center
05:14PM 36.8828 -103.1864 234° Southwest 457 526 38,000  Level Albuquerque Center
05:15PM 36.8042 -103.3125 232° Southwest 458 527 38,000 -300 Level Albuquerque Center
05:16PM 36.6956 -103.4506 226° Southwest 461 531 37,400 -780 Descending Albuquerque Center
05:17PM 36.6133 -103.5475 223° Southwest 440 506 36,500 -720 Descending Albuquerque Center
05:18PM 36.5244 -103.6506 223° Southwest 434 499 36,000 -180 Descending Albuquerque Center
05:20PM 36.3436 -103.8794 227° Southwest 458 527 36,000  Level Albuquerque Center
05:21PM 36.2544 -103.9978 227° Southwest 462 532 36,000  Level Albuquerque Center
05:22PM 36.1583 -104.1325 229° Southwest 451 519 36,000 -180 Level Albuquerque Center
05:23PM 36.0547 -104.2233 215° Southwest 453 521 35,700 -660 Descending Albuquerque Center
05:24PM 35.9497 -104.3144 215° Southwest 454 522 34,700 -1,020 Descending Albuquerque Center
05:26PM 35.8394 -104.4111 215° Southwest 474 545 33,700 -1,020 Descending Albuquerque Center
05:27PM 35.7306 -104.5069 216° Southwest 477 549 32,600 -1,080 Descending Albuquerque Center
05:28PM 35.6236 -104.5994 215° Southwest 476 548 31,600 -1,200 Descending Albuquerque Center
05:29PM 35.5178 -104.6908 215° Southwest 469 540 30,200 -2,160 Descending Albuquerque Center
05:33PM 35.1306 -105.0875 251° West 424 488 20,600 -2,340 Descending Albuquerque Center
05:35PM 35.1161 -105.3819 267° West 431 496 16,100 -1,500 Descending Albuquerque Center
05:36PM 35.1097 -105.5131 267° West 394 453 16,100 -60 Level Albuquerque Center
05:37PM 35.1031 -105.6669 267° West 395 455 16,000 -60 Descending Albuquerque Center
05:38PM 35.0037 -105.6871 251° West  Level FlightAware Approximate
05:38PM 35.0958 -105.8031 266° West 399 459 16,000  Level Albuquerque Center
05:39PM 35.0892 -105.9444 267° West 409 471 16,000  Level Albuquerque Center
05:39PM 35.0853 -106.0206 266° West 416 479 16,000 -300 Level Albuquerque Center
05:40PM 35.0811 -106.0853 266° West 411 473 15,700 -840 Descending Albuquerque Center
05:40PM 35.0667 -106.1553 256° West 414 476 15,200 -1,020 Descending Albuquerque Center
05:41PM 35.0414 -106.2892 257° West 402 463 14,200 -900 Descending Albuquerque Center
05:42PM 35.0317 -106.3431 258° West 394 453 13,800 -780 Descending Albuquerque Center
05:43PM 35.0092 -106.4719 258° West 391 450 13,000 -600 Descending Albuquerque Center
05:43PM 34.9900 -106.5542 254° West 393 452 13,000  Level Albuquerque Center
05:44PM 34.9606 -106.5903 225° Southwest 389 448 13,000  Level Albuquerque Center
05:44PM 34.9100 -106.6450 222° Southwest 389 448 13,000 -240 Level Albuquerque Center
05:45PM 34.8633 -106.6922 220° Southwest 390 449 12,800 -420 Descending Albuquerque Center
05:45PM 34.8342 -106.7239 222° Southwest 341 392 12,600 -1,200 Descending Albuquerque Center
05:47PM 34.8011 -106.8303 27° Northeast 267 307 10,400 -1,440 Descending Albuquerque Center
05:47PM 34.8294 -106.8311 359° North 231 266 9,800 -1,200 Descending Albuquerque Center
05:48PM 34.8867 -106.7933 28° Northeast 241 277 8,800 -960 Descending Albuquerque Center
05:49PM 34.9131 -106.7617 45° Northeast 233 268 8,200 -1,200 Descending Albuquerque Center
05:49PM 34.9325 -106.7375 46° Northeast 238 274 7,600 -1,200 Descending Albuquerque Center
05:51PM 34.9733 -106.6908 43° Northeast 188 216 6,600 -900 Descending Albuquerque Center
05:52PM 35.0050 -106.6514 46° Northeast 135 155 5,800 -840 Descending Albuquerque Center